Time;durP1;ratioP1;P1;durP2;ratioP2;P2;SDS_P1;SDS_P2;PMS_P1;PMS_P2;Temp;Humidity;BMP_temperature;BMP_pressure;BME280_temperature;BME280_humidity;BME280_pressure;Samples;Min_cycle;Max_cycle;Signal;HPM_P1;HPM_P2
2023/01/07 00:01:47;;;;;;;2.30;1.43;;;11.20;99.90;;;;;;5059246;28;20528;-76
2023/01/07 00:04:20;;;;;;;2.40;1.40;;;11.10;99.90;;;;;;5036276;28;20445;-78
2023/01/07 00:06:51;;;;;;;2.63;1.93;;;11.10;99.90;;;;;;5046593;28;20494;-78
2023/01/07 00:09:18;;;;;;;4.27;1.50;;;11.00;99.90;;;;;;5055312;28;20904;-77
2023/01/07 00:11:46;;;;;;;2.20;1.70;;;10.90;99.90;;;;;;5052365;28;20495;-77
2023/01/07 00:14:14;;;;;;;2.03;1.43;;;10.90;99.90;;;;;;5034689;28;20957;-77
2023/01/07 00:16:42;;;;;;;2.10;1.60;;;10.90;99.90;;;;;;5049009;28;20446;-77
2023/01/07 00:19:12;;;;;;;2.87;1.63;;;10.90;99.90;;;;;;5054807;28;20558;-77
2023/01/07 00:21:39;;;;;;;3.47;1.80;;;11.00;99.90;;;;;;5080806;23;20810;-83
2023/01/07 00:24:07;;;;;;;2.20;1.57;;;11.00;99.90;;;;;;5059471;28;20523;-81
2023/01/07 00:26:36;;;;;;;2.47;1.67;;;11.00;99.90;;;;;;5063480;28;20507;-80
2023/01/07 00:29:05;;;;;;;2.53;1.80;;;10.90;99.90;;;;;;5071565;28;20530;-80
2023/01/07 00:31:34;;;;;;;2.40;1.67;;;10.90;99.90;;;;;;5042684;28;20507;-77
2023/01/07 00:34:07;;;;;;;2.63;1.40;;;10.90;99.90;;;;;;5034876;28;20474;-79
2023/01/07 00:36:37;;;;;;;2.30;1.40;;;10.90;99.90;;;;;;5048955;28;20456;-79
2023/01/07 00:39:06;;;;;;;2.73;1.30;;;10.90;99.90;;;;;;5039958;28;21088;-80
2023/01/07 00:41:33;;;;;;;3.80;1.53;;;11.00;99.90;;;;;;5035208;28;20495;-78
2023/01/07 00:44:00;;;;;;;1.77;1.20;;;11.00;99.90;;;;;;5054387;28;20522;-83
2023/01/07 00:46:28;;;;;;;1.70;1.20;;;11.10;99.90;;;;;;5041030;28;20814;-81
2023/01/07 00:48:55;;;;;;;4.00;1.33;;;11.10;99.90;;;;;;5046044;28;20468;-82
2023/01/07 00:51:22;;;;;;;2.50;1.63;;;11.20;99.90;;;;;;5040564;28;20574;-80
2023/01/07 00:53:49;;;;;;;3.73;1.50;;;11.20;99.90;;;;;;5050473;28;20458;-82
2023/01/07 00:56:17;;;;;;;3.20;1.20;;;11.30;99.90;;;;;;5050190;28;20943;-80
2023/01/07 00:58:45;;;;;;;1.87;1.30;;;11.20;99.90;;;;;;5039514;28;20516;-81
2023/01/07 01:01:12;;;;;;;1.93;1.30;;;11.30;99.90;;;;;;5037063;28;20490;-81
2023/01/07 01:03:40;;;;;;;2.43;1.23;;;11.30;99.90;;;;;;5046102;28;20464;-80
2023/01/07 01:06:10;;;;;;;1.70;1.20;;;11.30;99.90;;;;;;5040505;28;20915;-83
2023/01/07 01:08:37;;;;;;;1.77;1.10;;;11.40;99.90;;;;;;5045642;28;20994;-79
2023/01/07 01:11:05;;;;;;;1.70;1.20;;;11.40;99.90;;;;;;5038941;28;20472;-80
2023/01/07 01:13:32;;;;;;;2.27;1.47;;;11.40;99.90;;;;;;5039271;28;20487;-82
2023/01/07 01:15:59;;;;;;;2.70;1.23;;;11.40;99.90;;;;;;5026256;28;20459;-80
2023/01/07 01:18:26;;;;;;;2.30;1.40;;;11.40;99.90;;;;;;5029974;28;20456;-80
2023/01/07 01:20:54;;;;;;;1.60;1.07;;;11.30;99.90;;;;;;5035836;28;20477;-80
2023/01/07 01:23:21;;;;;;;2.37;1.13;;;11.30;99.90;;;;;;5036632;28;20977;-79
2023/01/07 01:25:48;;;;;;;1.87;1.00;;;11.30;99.90;;;;;;5037541;28;20459;-80
2023/01/07 01:28:15;;;;;;;2.50;1.70;;;11.30;99.90;;;;;;5037395;28;20571;-79
2023/01/07 01:30:42;;;;;;;2.10;1.20;;;11.30;99.90;;;;;;5037546;28;20499;-79
2023/01/07 01:33:09;;;;;;;2.60;1.43;;;11.30;99.90;;;;;;5037529;28;20894;-80
2023/01/07 01:35:40;;;;;;;1.60;1.10;;;11.30;99.90;;;;;;5039961;28;20458;-84
2023/01/07 01:38:08;;;;;;;2.10;1.40;;;11.30;99.90;;;;;;5039197;28;20512;-82
2023/01/07 01:40:35;;;;;;;1.73;1.10;;;11.30;99.90;;;;;;5043971;28;20253;-82
2023/01/07 01:43:01;;;;;;;2.07;1.00;;;11.40;99.90;;;;;;5045454;28;20540;-83
2023/01/07 01:45:29;;;;;;;2.23;1.20;;;11.40;99.90;;;;;;5046527;28;20460;-82
2023/01/07 01:47:59;;;;;;;1.80;1.10;;;11.40;99.90;;;;;;5045968;28;20556;-82
2023/01/07 01:50:29;;;;;;;1.73;1.10;;;11.50;99.90;;;;;;5044985;28;20480;-82
2023/01/07 01:53:01;;;;;;;1.97;0.90;;;11.50;99.90;;;;;;5046569;28;20525;-83
2023/01/07 01:55:33;;;;;;;2.47;1.83;;;11.50;99.90;;;;;;5042883;28;20480;-79
2023/01/07 01:58:03;;;;;;;2.17;1.20;;;11.40;99.90;;;;;;5043125;28;20444;-80
2023/01/07 02:00:31;;;;;;;2.93;1.77;;;11.40;99.90;;;;;;5032754;28;20981;-79
2023/01/07 02:02:59;;;;;;;2.80;1.10;;;11.40;99.90;;;;;;5034799;28;20684;-78
2023/01/07 02:05:31;;;;;;;1.60;0.90;;;11.40;99.90;;;;;;5036269;28;20453;-80
2023/01/07 02:07:58;;;;;;;3.00;1.20;;;11.40;99.90;;;;;;5035772;28;20606;-78
2023/01/07 02:10:25;;;;;;;1.70;1.17;;;11.40;99.90;;;;;;5030880;28;20469;-79
2023/01/07 02:13:17;;;;;;;1.90;0.90;;;11.40;99.90;;;;;;5016160;28;20454;-81
2023/01/07 02:15:52;;;;;;;1.80;1.10;;;11.40;99.90;;;;;;5035464;28;20530;-82
2023/01/07 02:18:32;;;;;;;6.00;2.30;;;11.40;99.90;;;;;;5036767;28;20937;-78
2023/01/07 02:21:16;;;;;;;2.70;1.20;;;11.40;99.90;;;;;;5016565;28;20527;-79
2023/01/07 02:24:22;;;;;;;2.30;1.07;;;11.40;99.90;;;;;;5017343;28;20789;-81
2023/01/07 02:27:09;;;;;;;2.10;0.90;;;11.50;99.90;;;;;;4970019;28;20457;-82
2023/01/07 02:30:11;;;;;;;2.30;0.97;;;11.40;99.90;;;;;;5020290;28;20464;-80
2023/01/07 02:32:56;;;;;;;1.80;1.10;;;11.40;99.90;;;;;;5036976;28;20543;-80
2023/01/07 02:35:36;;;;;;;2.20;0.97;;;11.40;99.90;;;;;;5037212;28;20455;-80
2023/01/07 02:38:13;;;;;;;3.00;0.90;;;11.40;99.90;;;;;;5037695;28;20445;-79
2023/01/07 02:40:48;;;;;;;2.37;0.93;;;11.30;99.90;;;;;;5035639;28;20558;-79
2023/01/07 02:43:24;;;;;;;4.00;1.10;;;11.30;99.90;;;;;;5035820;28;20462;-79
2023/01/07 02:46:00;;;;;;;3.97;1.00;;;11.40;99.90;;;;;;5034406;28;20826;-81
2023/01/07 02:48:30;;;;;;;1.80;0.90;;;11.30;99.90;;;;;;5033970;28;20489;-78
2023/01/07 02:50:57;;;;;;;1.97;0.97;;;11.30;99.90;;;;;;5035969;28;20486;-80
2023/01/07 02:53:23;;;;;;;2.03;0.90;;;11.20;99.90;;;;;;5036812;28;20974;-80
2023/01/07 02:56:05;;;;;;;2.37;1.10;;;11.20;99.90;;;;;;5037383;28;20455;-85
2023/01/07 02:58:53;;;;;;;1.80;0.80;;;11.20;99.90;;;;;;5036521;28;20535;-80
2023/01/07 03:01:57;;;;;;;1.93;1.00;;;11.10;99.90;;;;;;5036634;28;20475;-80
2023/01/07 03:04:46;;;;;;;1.67;0.87;;;11.00;99.90;;;;;;5016798;28;20480;-79
2023/01/07 03:07:28;;;;;;;2.27;1.00;;;11.00;99.90;;;;;;5022890;28;21027;-81
2023/01/07 03:10:03;;;;;;;2.33;0.90;;;10.90;99.90;;;;;;5034789;28;20546;-79
2023/01/07 03:12:35;;;;;;;2.20;0.80;;;10.90;99.90;;;;;;5034509;28;20951;-78
2023/01/07 03:15:09;;;;;;;2.10;0.80;;;10.90;99.90;;;;;;5034859;28;20480;-79
2023/01/07 03:17:42;;;;;;;1.73;0.87;;;10.90;99.90;;;;;;5033987;28;20443;-79
2023/01/07 03:20:13;;;;;;;2.10;1.30;;;11.00;99.90;;;;;;5035100;28;20938;-83
2023/01/07 03:22:42;;;;;;;1.77;0.90;;;11.00;99.90;;;;;;5035442;28;20449;-77
2023/01/07 03:25:10;;;;;;;1.50;0.80;;;10.90;99.90;;;;;;5034836;28;20479;-79
2023/01/07 03:27:38;;;;;;;2.00;1.00;;;11.00;99.90;;;;;;5035643;28;20492;-78
2023/01/07 03:30:10;;;;;;;1.67;0.90;;;11.00;99.90;;;;;;5034554;28;20487;-80
2023/01/07 03:32:41;;;;;;;2.13;0.70;;;11.00;99.90;;;;;;5035341;28;20543;-79
2023/01/07 03:35:10;;;;;;;4.00;2.10;;;11.00;99.90;;;;;;5034747;28;20478;-80
2023/01/07 03:37:40;;;;;;;2.70;0.97;;;10.90;99.90;;;;;;5034276;28;20530;-79
2023/01/07 03:40:09;;;;;;;1.50;0.87;;;11.00;99.90;;;;;;5033374;28;21068;-79
2023/01/07 03:42:38;;;;;;;2.37;0.97;;;11.00;99.90;;;;;;5034290;28;20455;-80
2023/01/07 03:45:07;;;;;;;1.50;0.70;;;11.00;99.90;;;;;;5033476;28;20484;-79
2023/01/07 03:47:35;;;;;;;1.57;0.90;;;11.00;99.90;;;;;;5034599;28;20576;-78
2023/01/07 03:50:02;;;;;;;1.60;0.97;;;11.00;99.90;;;;;;5034064;28;20471;-78
2023/01/07 03:52:30;;;;;;;3.20;0.70;;;11.10;99.90;;;;;;5038775;28;20480;-78
2023/01/07 03:54:57;;;;;;;3.90;1.20;;;11.10;99.90;;;;;;5037976;28;20976;-79
2023/01/07 03:57:24;;;;;;;2.10;1.10;;;11.10;99.90;;;;;;5037870;28;20487;-79
2023/01/07 03:59:50;;;;;;;1.40;0.73;;;11.10;99.90;;;;;;5036534;28;20875;-80
2023/01/07 04:02:17;;;;;;;1.60;1.00;;;11.20;99.90;;;;;;5036165;28;20487;-80
2023/01/07 04:04:44;;;;;;;1.53;0.80;;;11.20;99.90;;;;;;5036408;28;20447;-80
2023/01/07 04:07:12;;;;;;;1.80;1.00;;;11.10;99.90;;;;;;5035275;28;20500;-78
2023/01/07 04:09:40;;;;;;;1.70;0.80;;;11.20;99.90;;;;;;5033761;28;20881;-80
2023/01/07 04:12:07;;;;;;;1.43;0.77;;;11.00;99.90;;;;;;5035286;28;20833;-78
2023/01/07 04:14:34;;;;;;;4.13;0.80;;;11.00;99.90;;;;;;5034105;28;20464;-79
2023/01/07 04:17:01;;;;;;;2.17;1.00;;;10.80;99.90;;;;;;5034183;28;20510;-80
2023/01/07 04:19:28;;;;;;;1.50;0.80;;;10.80;99.90;;;;;;5022535;28;20971;-80
2023/01/07 04:21:55;;;;;;;1.53;0.83;;;10.70;99.90;;;;;;5014772;28;20577;-79
2023/01/07 04:24:22;;;;;;;1.90;0.90;;;10.70;99.90;;;;;;5018715;28;20848;-79
2023/01/07 04:26:50;;;;;;;2.10;1.10;;;10.70;99.90;;;;;;5037380;28;20467;-80
2023/01/07 04:29:17;;;;;;;1.97;0.83;;;10.60;99.90;;;;;;5037792;28;20581;-79
2023/01/07 04:31:43;;;;;;;1.50;0.90;;;10.60;99.90;;;;;;5038135;28;20543;-79
2023/01/07 04:34:10;;;;;;;2.37;1.10;;;10.50;99.90;;;;;;5039006;28;20475;-80
2023/01/07 04:36:37;;;;;;;1.93;0.90;;;10.50;99.90;;;;;;5039364;28;20455;-80
2023/01/07 04:39:04;;;;;;;1.70;1.10;;;10.50;99.90;;;;;;5037149;28;20879;-83
2023/01/07 04:41:31;;;;;;;1.90;0.90;;;10.50;99.90;;;;;;5030713;28;20553;-81
2023/01/07 04:43:59;;;;;;;1.67;1.10;;;10.50;99.90;;;;;;5039658;28;20447;-80
2023/01/07 04:46:26;;;;;;;3.63;1.10;;;10.50;99.90;;;;;;5039465;28;20539;-81
2023/01/07 04:48:53;;;;;;;1.70;1.00;;;10.50;99.90;;;;;;5039466;28;20550;-79
2023/01/07 04:51:20;;;;;;;1.50;0.90;;;10.50;99.90;;;;;;5039178;28;20480;-79
2023/01/07 04:53:46;;;;;;;2.53;1.10;;;10.50;99.90;;;;;;5038972;28;20969;-79
2023/01/07 04:56:13;;;;;;;1.60;1.00;;;10.50;99.90;;;;;;5038937;28;20460;-79
2023/01/07 04:58:40;;;;;;;6.30;1.10;;;10.40;99.90;;;;;;5037990;28;20828;-80
2023/01/07 05:01:08;;;;;;;2.50;0.90;;;10.40;99.90;;;;;;5038225;28;21000;-79
2023/01/07 05:03:35;;;;;;;1.83;1.10;;;10.40;99.90;;;;;;5038450;28;20452;-79
2023/01/07 05:06:03;;;;;;;1.67;0.80;;;10.40;99.90;;;;;;5038107;28;20833;-80
2023/01/07 05:08:30;;;;;;;1.70;1.10;;;10.40;99.90;;;;;;5031370;28;21510;-80
2023/01/07 05:10:57;;;;;;;1.70;1.07;;;10.40;99.90;;;;;;5034578;28;20568;-79
2023/01/07 05:13:24;;;;;;;1.67;0.90;;;10.40;99.90;;;;;;5031933;28;20456;-81
2023/01/07 05:15:51;;;;;;;1.77;1.17;;;10.40;99.90;;;;;;5037387;28;20448;-82
2023/01/07 05:18:19;;;;;;;1.90;0.97;;;10.30;99.90;;;;;;5036587;28;20475;-79
2023/01/07 05:20:47;;;;;;;2.20;1.13;;;10.40;99.90;;;;;;5033890;28;20486;-79
2023/01/07 05:23:13;;;;;;;1.83;1.13;;;10.50;99.90;;;;;;5036631;28;20461;-78
2023/01/07 05:25:40;;;;;;;4.60;1.10;;;10.50;99.90;;;;;;5035447;28;20452;-78
2023/01/07 05:28:07;;;;;;;1.80;1.40;;;10.50;99.90;;;;;;5033028;28;20496;-78
2023/01/07 05:30:34;;;;;;;2.73;1.33;;;10.50;99.90;;;;;;5036260;28;20554;-79
2023/01/07 05:33:01;;;;;;;1.63;1.10;;;10.50;99.90;;;;;;5038299;28;20544;-78
2023/01/07 05:35:29;;;;;;;2.67;1.30;;;10.50;99.90;;;;;;5032333;28;20533;-81
2023/01/07 05:37:56;;;;;;;2.13;1.10;;;10.50;99.90;;;;;;5037387;28;20465;-78
2023/01/07 05:40:23;;;;;;;4.20;1.40;;;10.50;99.90;;;;;;5036718;28;20484;-79
2023/01/07 05:42:49;;;;;;;2.30;1.33;;;10.50;99.90;;;;;;5038178;28;20554;-80
2023/01/07 05:45:16;;;;;;;2.83;1.40;;;10.50;99.90;;;;;;5037319;28;20548;-80
2023/01/07 05:47:43;;;;;;;2.50;1.43;;;10.60;99.90;;;;;;5033633;28;20460;-79
2023/01/07 05:50:10;;;;;;;1.63;1.07;;;10.50;99.90;;;;;;5030666;28;20881;-81
2023/01/07 05:52:38;;;;;;;1.90;1.20;;;10.50;99.90;;;;;;5037197;28;20542;-78
2023/01/07 05:55:07;;;;;;;2.03;1.17;;;10.50;99.90;;;;;;5031033;28;21031;-77
2023/01/07 05:57:34;;;;;;;2.20;1.07;;;10.50;99.90;;;;;;5030977;28;20592;-80
2023/01/07 06:00:00;;;;;;;1.80;1.10;;;10.50;99.90;;;;;;5038268;28;20849;-79
2023/01/07 06:02:29;;;;;;;2.23;1.23;;;10.40;99.90;;;;;;5034133;28;20468;-77
2023/01/07 06:04:55;;;;;;;2.53;1.50;;;10.40;99.90;;;;;;5033477;28;20459;-77
2023/01/07 06:07:22;;;;;;;1.90;1.00;;;10.40;99.90;;;;;;5014544;28;20460;-77
2023/01/07 06:09:50;;;;;;;1.50;1.00;;;10.40;99.90;;;;;;5023073;28;20480;-77
2023/01/07 06:12:17;;;;;;;2.00;1.40;;;10.40;99.90;;;;;;5033856;28;20897;-78
2023/01/07 06:14:44;;;;;;;2.00;1.07;;;10.30;99.90;;;;;;5033460;28;20470;-77
2023/01/07 06:17:11;;;;;;;3.20;1.00;;;10.30;99.90;;;;;;5034119;28;20578;-78
2023/01/07 06:19:37;;;;;;;2.60;1.00;;;10.40;99.90;;;;;;5032926;28;20457;-78
2023/01/07 06:22:04;;;;;;;2.47;1.27;;;10.40;99.90;;;;;;5076915;22;20503;-77
2023/01/07 06:24:31;;;;;;;2.00;1.17;;;10.30;99.90;;;;;;5062053;28;20451;-78
2023/01/07 06:26:59;;;;;;;2.57;1.10;;;10.30;99.90;;;;;;5044026;28;20451;-77
2023/01/07 06:29:26;;;;;;;1.70;1.10;;;10.30;99.90;;;;;;5058233;28;20495;-76
2023/01/07 06:31:53;;;;;;;1.97;1.10;;;10.30;99.90;;;;;;5041285;28;20474;-77
2023/01/07 06:34:20;;;;;;;1.80;1.13;;;10.20;99.90;;;;;;5035829;28;20448;-77
2023/01/07 06:36:46;;;;;;;2.40;1.20;;;10.20;99.90;;;;;;5036474;28;20455;-76
2023/01/07 06:39:13;;;;;;;3.10;1.20;;;10.10;99.90;;;;;;5031581;28;20458;-76
2023/01/07 06:41:40;;;;;;;1.60;1.03;;;10.10;99.90;;;;;;5030140;28;21104;-76
2023/01/07 06:44:08;;;;;;;2.73;1.20;;;10.10;99.90;;;;;;5031963;28;20477;-77
2023/01/07 06:46:35;;;;;;;1.90;1.10;;;10.00;99.90;;;;;;5044988;28;20458;-77
2023/01/07 06:49:02;;;;;;;3.50;1.20;;;10.00;99.90;;;;;;5050999;28;20487;-76
2023/01/07 06:51:29;;;;;;;2.20;1.43;;;10.00;99.90;;;;;;5051636;28;20475;-78
2023/01/07 06:53:56;;;;;;;1.93;1.23;;;10.10;99.90;;;;;;5052123;28;20454;-77
2023/01/07 06:56:22;;;;;;;1.80;1.03;;;10.00;99.90;;;;;;5052254;28;20451;-78
2023/01/07 06:58:49;;;;;;;2.13;1.27;;;10.10;99.90;;;;;;5040356;28;20456;-78
2023/01/07 07:01:18;;;;;;;1.60;1.00;;;10.00;99.90;;;;;;5031676;28;20863;-76
2023/01/07 07:03:44;;;;;;;2.73;1.27;;;10.00;99.90;;;;;;5032314;28;20502;-77
2023/01/07 07:06:11;;;;;;;1.70;1.10;;;10.10;99.90;;;;;;5031949;28;20839;-77
2023/01/07 07:08:38;;;;;;;2.37;1.20;;;10.10;99.90;;;;;;5032324;28;20482;-77
2023/01/07 07:11:05;;;;;;;3.10;1.30;;;10.20;99.90;;;;;;5031777;28;20486;-77
2023/01/07 07:13:32;;;;;;;2.57;1.37;;;10.30;99.90;;;;;;5032021;28;20486;-77
2023/01/07 07:15:59;;;;;;;1.87;1.37;;;10.30;99.90;;;;;;5030263;28;20961;-77
2023/01/07 07:18:27;;;;;;;2.37;1.30;;;10.40;99.90;;;;;;5031788;28;20561;-78
2023/01/07 07:20:54;;;;;;;2.63;0.93;;;10.40;99.90;;;;;;5029632;28;20852;-77
2023/01/07 07:23:20;;;;;;;2.90;1.27;;;10.40;99.90;;;;;;5033095;28;20465;-77
2023/01/07 07:25:47;;;;;;;2.20;1.10;;;10.50;99.90;;;;;;5042516;28;20461;-77
2023/01/07 07:28:15;;;;;;;2.43;0.90;;;10.60;99.90;;;;;;5042172;28;20982;-77
2023/01/07 07:30:42;;;;;;;1.90;0.97;;;10.60;99.90;;;;;;5038478;28;20494;-77
2023/01/07 07:33:11;;;;;;;2.63;1.13;;;10.70;99.90;;;;;;5039262;28;20459;-76
2023/01/07 07:35:39;;;;;;;2.27;1.23;;;10.80;99.90;;;;;;5040992;28;20542;-76
2023/01/07 07:38:06;;;;;;;2.90;1.20;;;10.80;99.90;;;;;;5045480;28;20447;-77
2023/01/07 07:40:33;;;;;;;1.63;0.90;;;10.80;99.90;;;;;;5042300;28;20445;-78
2023/01/07 07:43:00;;;;;;;2.97;1.73;;;10.80;99.90;;;;;;5036827;28;20499;-76
2023/01/07 07:45:27;;;;;;;2.13;1.30;;;10.80;99.90;;;;;;5044559;28;20442;-78
2023/01/07 07:47:53;;;;;;;2.00;1.20;;;10.80;99.90;;;;;;5040736;28;20448;-78
2023/01/07 07:50:20;;;;;;;1.70;1.00;;;10.90;99.90;;;;;;5033839;28;21280;-78
2023/01/07 07:52:48;;;;;;;1.83;0.90;;;10.90;99.90;;;;;;5030203;28;20451;-78
2023/01/07 07:55:15;;;;;;;1.70;1.20;;;10.90;99.90;;;;;;5032167;28;20462;-78
2023/01/07 07:57:42;;;;;;;4.27;1.13;;;10.80;99.90;;;;;;5044466;28;20456;-78
2023/01/07 08:00:10;;;;;;;3.10;1.07;;;10.90;99.90;;;;;;5035388;28;20450;-77
2023/01/07 08:02:37;;;;;;;2.23;1.27;;;10.90;99.90;;;;;;5022367;28;20483;-77
2023/01/07 08:05:04;;;;;;;1.90;0.90;;;11.00;99.90;;;;;;5035367;28;20549;-78
2023/01/07 08:07:31;;;;;;;2.30;1.10;;;11.10;99.90;;;;;;5027221;28;20548;-78
2023/01/07 08:09:59;;;;;;;1.73;1.00;;;11.00;99.90;;;;;;5014844;28;20487;-78
2023/01/07 08:12:26;;;;;;;1.60;0.87;;;11.10;99.90;;;;;;5015620;28;20476;-77
2023/01/07 08:14:53;;;;;;;3.90;0.83;;;11.10;99.90;;;;;;5015468;28;20575;-77
2023/01/07 08:17:19;;;;;;;1.50;0.80;;;11.20;99.90;;;;;;5015612;28;20961;-77
2023/01/07 08:19:46;;;;;;;1.73;0.90;;;11.20;99.90;;;;;;5034608;28;20499;-78
2023/01/07 08:22:13;;;;;;;2.03;0.97;;;11.20;99.90;;;;;;5034765;28;20487;-78
2023/01/07 08:24:40;;;;;;;1.70;0.90;;;11.20;99.90;;;;;;5035076;28;20890;-76
2023/01/07 08:27:08;;;;;;;2.50;1.00;;;11.20;99.90;;;;;;5016967;28;20457;-78
2023/01/07 08:29:35;;;;;;;1.83;0.90;;;11.20;99.90;;;;;;5014999;28;20886;-78
2023/01/07 08:32:02;;;;;;;2.83;1.10;;;11.30;99.90;;;;;;5019519;28;20472;-78
2023/01/07 08:34:29;;;;;;;1.83;1.13;;;11.30;99.90;;;;;;5022896;28;20541;-78
2023/01/07 08:36:55;;;;;;;1.77;0.93;;;11.40;99.90;;;;;;5015029;28;20483;-78
2023/01/07 08:39:22;;;;;;;2.27;0.80;;;11.40;99.90;;;;;;5014535;28;20446;-77
2023/01/07 08:41:49;;;;;;;2.67;0.90;;;11.40;99.90;;;;;;5023203;28;20464;-77
2023/01/07 08:44:17;;;;;;;1.60;0.70;;;11.40;99.90;;;;;;5034784;28;20459;-76
2023/01/07 08:46:44;;;;;;;2.27;1.20;;;11.50;99.90;;;;;;5035189;28;20462;-76
2023/01/07 08:49:11;;;;;;;1.80;0.90;;;11.50;99.90;;;;;;5034719;28;21038;-76
2023/01/07 08:51:38;;;;;;;1.60;0.90;;;11.50;99.90;;;;;;5034342;28;20852;-76
2023/01/07 08:54:04;;;;;;;2.10;1.00;;;11.50;99.90;;;;;;5034250;28;20459;-77
2023/01/07 08:56:32;;;;;;;2.17;1.00;;;11.50;99.90;;;;;;5034317;28;20455;-77
2023/01/07 08:58:59;;;;;;;2.53;0.80;;;11.50;99.90;;;;;;5016698;28;20460;-78
2023/01/07 09:01:27;;;;;;;2.47;0.90;;;11.50;99.90;;;;;;5014312;28;20512;-77
2023/01/07 09:03:54;;;;;;;1.50;0.90;;;11.40;99.90;;;;;;5014306;28;20458;-77
2023/01/07 09:06:21;;;;;;;1.83;0.87;;;11.50;99.90;;;;;;5014576;28;20859;-77
2023/01/07 09:08:48;;;;;;;1.80;0.87;;;11.50;99.90;;;;;;5013829;28;20485;-77
2023/01/07 09:11:15;;;;;;;2.17;0.83;;;11.60;99.90;;;;;;5013849;28;20500;-77
2023/01/07 09:13:42;;;;;;;1.50;0.80;;;11.60;99.90;;;;;;5016935;28;20841;-77
2023/01/07 09:16:09;;;;;;;1.87;0.80;;;11.60;99.90;;;;;;5020547;28;20544;-77
2023/01/07 09:18:37;;;;;;;1.87;0.90;;;11.60;99.90;;;;;;5020730;28;20448;-77
2023/01/07 09:21:04;;;;;;;1.80;0.90;;;11.60;99.90;;;;;;5015221;28;21009;-76
2023/01/07 09:23:30;;;;;;;2.20;0.90;;;11.70;99.90;;;;;;5014307;28;20912;-77
2023/01/07 09:25:57;;;;;;;2.00;0.97;;;11.70;99.90;;;;;;5013896;28;20480;-77
2023/01/07 09:28:24;;;;;;;12.60;1.10;;;11.70;99.90;;;;;;5014376;28;20448;-77
2023/01/07 09:30:51;;;;;;;2.03;1.00;;;11.80;99.90;;;;;;5014624;28;20500;-77
2023/01/07 09:33:18;;;;;;;1.67;1.00;;;11.90;99.90;;;;;;5014275;28;20459;-77
2023/01/07 09:35:46;;;;;;;1.70;0.80;;;11.80;99.90;;;;;;5014022;28;20459;-77
2023/01/07 09:38:12;;;;;;;3.83;1.10;;;11.80;99.90;;;;;;5013984;28;20450;-77
2023/01/07 09:40:41;;;;;;;2.00;1.10;;;11.90;99.90;;;;;;5013584;28;21018;-77
2023/01/07 09:43:14;;;;;;;1.70;0.80;;;12.00;99.90;;;;;;5013687;28;20456;-77
2023/01/07 09:45:45;;;;;;;2.00;0.90;;;12.00;99.90;;;;;;5021573;28;20955;-77
2023/01/07 09:48:20;;;;;;;2.47;0.90;;;11.90;99.90;;;;;;5033503;28;20482;-77
2023/01/07 09:50:54;;;;;;;2.80;1.00;;;11.80;99.90;;;;;;5032711;28;20862;-77
2023/01/07 09:53:24;;;;;;;2.20;0.80;;;11.80;99.90;;;;;;5033429;28;20964;-77
2023/01/07 09:55:53;;;;;;;1.50;0.60;;;11.90;99.90;;;;;;5033385;28;20464;-76
2023/01/07 09:58:21;;;;;;;1.60;1.00;;;11.90;99.90;;;;;;5025361;28;20457;-76
2023/01/07 10:01:00;;;;;;;1.60;1.00;;;11.90;99.90;;;;;;5013087;28;21041;-76
2023/01/07 10:03:46;;;;;;;2.47;0.90;;;11.80;99.90;;;;;;5013434;28;20459;-76
2023/01/07 10:06:20;;;;;;;1.53;0.90;;;11.80;99.90;;;;;;5013782;28;20464;-77
2023/01/07 10:08:58;;;;;;;2.10;0.97;;;11.80;99.90;;;;;;5013496;28;20460;-78
2023/01/07 10:11:35;;;;;;;3.67;1.30;;;11.80;99.90;;;;;;5012761;28;21033;-76
2023/01/07 10:14:25;;;;;;;1.87;0.93;;;11.90;99.90;;;;;;5013091;28;20467;-77
2023/01/07 10:17:01;;;;;;;2.27;1.33;;;11.80;99.90;;;;;;5013310;28;20536;-77
2023/01/07 10:19:37;;;;;;;4.00;1.13;;;11.90;99.90;;;;;;5012569;28;20963;-78
2023/01/07 10:22:15;;;;;;;1.80;1.03;;;12.00;99.90;;;;;;5015986;28;20475;-78
2023/01/07 10:24:46;;;;;;;7.70;4.10;;;12.20;99.90;;;;;;5032731;28;20453;-78
2023/01/07 10:27:15;;;;;;;2.53;1.47;;;12.20;99.90;;;;;;5033105;28;20457;-77
2023/01/07 10:29:47;;;;;;;2.90;1.90;;;12.20;99.90;;;;;;5030119;28;20994;-77
2023/01/07 10:32:16;;;;;;;2.00;1.50;;;12.40;99.90;;;;;;5032088;28;20477;-77
2023/01/07 10:34:46;;;;;;;1.83;1.13;;;12.60;99.90;;;;;;5032361;28;20460;-77
2023/01/07 10:37:22;;;;;;;2.50;1.40;;;12.80;99.90;;;;;;5032170;28;20450;-77
2023/01/07 10:40:00;;;;;;;2.20;1.30;;;12.90;99.90;;;;;;5014917;28;20453;-77
2023/01/07 10:42:34;;;;;;;2.07;1.07;;;13.10;99.90;;;;;;5036159;28;20501;-78
2023/01/07 10:45:24;;;;;;;2.57;1.47;;;13.30;99.90;;;;;;5026136;28;20625;-77
2023/01/07 10:48:07;;;;;;;3.40;1.50;;;13.50;99.90;;;;;;5028294;28;20535;-77
2023/01/07 10:50:52;;;;;;;2.20;1.20;;;13.50;99.90;;;;;;5011943;28;20497;-77
2023/01/07 10:53:33;;;;;;;2.40;1.50;;;13.70;99.90;;;;;;5012443;28;20455;-77
2023/01/07 10:56:10;;;;;;;4.40;2.87;;;13.80;99.90;;;;;;5014326;28;20467;-77
2023/01/07 10:58:42;;;;;;;4.23;2.67;;;14.00;99.90;;;;;;5023504;28;20457;-77
2023/01/07 11:01:18;;;;;;;2.97;2.00;;;13.90;99.90;;;;;;5010863;28;20465;-77
2023/01/07 11:03:48;;;;;;;3.27;1.50;;;13.90;99.90;;;;;;5023238;28;21862;-76
2023/01/07 11:06:19;;;;;;;2.40;1.80;;;13.90;99.90;;;;;;5019780;28;20448;-77
2023/01/07 11:08:48;;;;;;;2.60;1.60;;;13.90;99.90;;;;;;5012097;28;21004;-77
2023/01/07 11:11:19;;;;;;;2.97;1.80;;;13.90;99.90;;;;;;5012535;28;20501;-76
2023/01/07 11:13:55;;;;;;;15.33;10.90;;;13.90;99.90;;;;;;5013540;28;20454;-78
2023/01/07 11:16:26;;;;;;;4.40;3.60;;;13.90;99.90;;;;;;5012413;28;20447;-78
2023/01/07 11:18:57;;;;;;;4.27;2.13;;;13.90;99.90;;;;;;5012878;28;20824;-76
2023/01/07 11:21:35;;;;;;;3.00;2.20;;;13.90;99.90;;;;;;5011393;28;20488;-78
2023/01/07 11:24:31;;;;;;;2.33;1.73;;;13.80;99.90;;;;;;5028568;28;20494;-77
2023/01/07 11:27:05;;;;;;;2.37;1.60;;;13.90;99.90;;;;;;5031877;28;20454;-77
2023/01/07 11:29:37;;;;;;;2.70;1.80;;;14.10;99.90;;;;;;5031719;28;20579;-76
2023/01/07 11:32:06;;;;;;;3.03;1.60;;;14.50;99.90;;;;;;5030423;28;20502;-78
2023/01/07 11:34:35;;;;;;;3.00;1.40;;;14.90;99.90;;;;;;5032103;28;20467;-78
2023/01/07 11:37:03;;;;;;;2.10;1.20;;;15.10;99.90;;;;;;5036181;28;20448;-77
2023/01/07 11:39:33;;;;;;;2.60;1.80;;;15.30;99.90;;;;;;5034687;28;20464;-79
2023/01/07 11:42:37;;;;;;;2.50;1.40;;;15.40;99.90;;;;;;5029440;28;20476;-78
2023/01/07 11:44:49;;;;;;;2.90;1.50;;;15.20;99.90;;;;;;5032045;28;20440;-78
2023/01/07 11:47:17;;;;;;;3.70;1.37;;;15.20;99.90;;;;;;5016362;28;20777;-77
2023/01/07 11:49:45;;;;;;;3.83;2.23;;;15.20;99.90;;;;;;5025790;28;20460;-80
2023/01/07 11:52:18;;;;;;;2.00;1.30;;;14.60;99.90;;;;;;5024883;28;21007;-77
2023/01/07 11:54:50;;;;;;;3.70;1.87;;;14.30;99.90;;;;;;5034413;28;20450;-76
2023/01/07 11:57:25;;;;;;;2.90;1.47;;;14.20;99.90;;;;;;5033145;28;20456;-76
2023/01/07 12:00:10;;;;;;;2.60;1.40;;;14.10;99.90;;;;;;5032767;28;20451;-77
2023/01/07 12:02:37;;;;;;;5.13;1.70;;;13.90;99.90;;;;;;5034272;28;20480;-77
2023/01/07 12:05:19;;;;;;;2.80;1.57;;;13.50;99.90;;;;;;5019279;28;20475;-77
2023/01/07 12:07:47;;;;;;;2.20;1.10;;;13.30;99.90;;;;;;5025947;28;20456;-78
2023/01/07 12:10:33;;;;;;;1.80;1.10;;;13.30;99.90;;;;;;5033427;28;21047;-76
2023/01/07 12:13:03;;;;;;;2.53;1.17;;;13.20;99.90;;;;;;5019955;28;20458;-76
2023/01/07 12:15:32;;;;;;;2.33;1.30;;;13.10;99.90;;;;;;5029539;28;20449;-76
2023/01/07 12:18:37;;;;;;;1.90;1.10;;;13.10;99.90;;;;;;5031606;28;21151;-76
2023/01/07 12:23:43;;;;;;;1.80;1.00;;;12.90;99.90;;;;;;5086293;23;20495;-81
2023/01/07 12:26:16;;;;;;;2.00;1.30;;;12.90;99.90;;;;;;5065148;28;20275;-83
2023/01/07 12:29:07;;;;;;;2.03;1.00;;;13.00;99.90;;;;;;5065615;28;20455;-82
2023/01/07 12:31:49;;;;;;;2.70;1.40;;;13.00;99.90;;;;;;5049165;28;20525;-82
2023/01/07 12:34:25;;;;;;;2.97;1.37;;;13.10;99.90;;;;;;5066658;28;20525;-83
2023/01/07 12:36:59;;;;;;;2.10;1.10;;;13.10;99.90;;;;;;5064763;28;20459;-82
2023/01/07 12:39:32;;;;;;;2.27;1.50;;;13.20;99.90;;;;;;5064501;28;20457;-81
2023/01/07 12:42:07;;;;;;;2.00;1.27;;;13.30;99.90;;;;;;5064871;28;20506;-83
2023/01/07 12:44:37;;;;;;;3.00;1.43;;;13.40;99.90;;;;;;5057406;28;20548;-80
2023/01/07 12:47:10;;;;;;;2.00;1.00;;;13.70;99.90;;;;;;5066187;28;20553;-81
2023/01/07 12:49:44;;;;;;;1.70;0.90;;;13.80;99.90;;;;;;5059563;28;20480;-81
2023/01/07 12:52:17;;;;;;;2.70;1.30;;;13.90;99.90;;;;;;5063981;28;20503;-81
2023/01/07 12:54:53;;;;;;;13.97;1.50;;;13.80;99.90;;;;;;5057073;28;20514;-82
2023/01/07 12:57:27;;;;;;;1.83;1.00;;;13.70;99.90;;;;;;5067088;28;20970;-81
2023/01/07 13:00:02;;;;;;;1.90;1.00;;;13.70;99.90;;;;;;5060214;28;20543;-82
2023/01/07 13:02:37;;;;;;;2.30;1.20;;;14.00;99.90;;;;;;5059432;28;20999;-84
2023/01/07 13:05:12;;;;;;;2.20;1.23;;;14.00;99.90;;;;;;5052508;28;20475;-80